sensor_id;sensor_type;location;lat;lon;timestamp;P1;durP1;ratioP1;P2;durP2;ratioP2
17727;SDS011;8984;49.268;12.302;2022-07-22T00:00:00;13.05;;;11.73;;
17727;SDS011;8984;49.268;12.302;2022-07-22T00:02:29;12.52;;;11.27;;
17727;SDS011;8984;49.268;12.302;2022-07-22T00:04:56;13.40;;;12.00;;
17727;SDS011;8984;49.268;12.302;2022-07-22T00:07:23;12.35;;;11.10;;
17727;SDS011;8984;49.268;12.302;2022-07-22T00:09:50;16.35;;;12.27;;
17727;SDS011;8984;49.268;12.302;2022-07-22T00:12:18;14.27;;;12.35;;
17727;SDS011;8984;49.268;12.302;2022-07-22T00:14:45;13.43;;;11.68;;
17727;SDS011;8984;49.268;12.302;2022-07-22T00:17:12;12.48;;;11.27;;
17727;SDS011;8984;49.268;12.302;2022-07-22T00:19:42;13.27;;;11.88;;
17727;SDS011;8984;49.268;12.302;2022-07-22T00:22:10;13.02;;;11.73;;
17727;SDS011;8984;49.268;12.302;2022-07-22T00:24:37;13.07;;;11.77;;
17727;SDS011;8984;49.268;12.302;2022-07-22T00:27:04;16.13;;;12.13;;
17727;SDS011;8984;49.268;12.302;2022-07-22T00:29:32;14.13;;;12.48;;
17727;SDS011;8984;49.268;12.302;2022-07-22T00:31:59;15.23;;;12.60;;
17727;SDS011;8984;49.268;12.302;2022-07-22T00:34:26;13.88;;;12.48;;
17727;SDS011;8984;49.268;12.302;2022-07-22T00:36:52;12.05;;;10.85;;
17727;SDS011;8984;49.268;12.302;2022-07-22T00:39:19;14.57;;;12.57;;
17727;SDS011;8984;49.268;12.302;2022-07-22T00:41:47;13.23;;;11.88;;
17727;SDS011;8984;49.268;12.302;2022-07-22T00:44:14;12.50;;;11.20;;
17727;SDS011;8984;49.268;12.302;2022-07-22T00:46:43;13.13;;;11.83;;
17727;SDS011;8984;49.268;12.302;2022-07-22T00:49:10;13.60;;;12.15;;
17727;SDS011;8984;49.268;12.302;2022-07-22T00:51:38;14.05;;;11.88;;
17727;SDS011;8984;49.268;12.302;2022-07-22T00:54:05;12.20;;;10.90;;
17727;SDS011;8984;49.268;12.302;2022-07-22T00:56:33;12.98;;;11.68;;
17727;SDS011;8984;49.268;12.302;2022-07-22T00:59:02;13.20;;;11.90;;
17727;SDS011;8984;49.268;12.302;2022-07-22T01:01:30;16.58;;;12.48;;
17727;SDS011;8984;49.268;12.302;2022-07-22T01:03:59;13.30;;;11.82;;
17727;SDS011;8984;49.268;12.302;2022-07-22T01:06:26;14.77;;;12.30;;
17727;SDS011;8984;49.268;12.302;2022-07-22T01:08:53;12.25;;;11.05;;
17727;SDS011;8984;49.268;12.302;2022-07-22T01:11:21;14.13;;;12.63;;
17727;SDS011;8984;49.268;12.302;2022-07-22T01:13:49;13.40;;;12.03;;
17727;SDS011;8984;49.268;12.302;2022-07-22T01:16:17;14.13;;;12.53;;
17727;SDS011;8984;49.268;12.302;2022-07-22T01:18:45;14.25;;;12.93;;
17727;SDS011;8984;49.268;12.302;2022-07-22T01:21:14;14.70;;;12.17;;
17727;SDS011;8984;49.268;12.302;2022-07-22T01:23:42;13.75;;;12.23;;
17727;SDS011;8984;49.268;12.302;2022-07-22T01:26:10;14.03;;;12.23;;
17727;SDS011;8984;49.268;12.302;2022-07-22T01:28:37;12.87;;;11.63;;
17727;SDS011;8984;49.268;12.302;2022-07-22T01:31:04;13.00;;;11.70;;
17727;SDS011;8984;49.268;12.302;2022-07-22T01:33:31;13.37;;;12.10;;
17727;SDS011;8984;49.268;12.302;2022-07-22T01:35:59;13.63;;;12.23;;
17727;SDS011;8984;49.268;12.302;2022-07-22T01:38:27;13.50;;;12.13;;
17727;SDS011;8984;49.268;12.302;2022-07-22T01:40:54;13.90;;;11.60;;
17727;SDS011;8984;49.268;12.302;2022-07-22T01:43:21;13.37;;;11.80;;
17727;SDS011;8984;49.268;12.302;2022-07-22T01:45:50;14.20;;;11.90;;
17727;SDS011;8984;49.268;12.302;2022-07-22T01:48:17;13.97;;;12.67;;
17727;SDS011;8984;49.268;12.302;2022-07-22T01:50:45;13.60;;;12.20;;
17727;SDS011;8984;49.268;12.302;2022-07-22T01:53:12;16.33;;;11.80;;
17727;SDS011;8984;49.268;12.302;2022-07-22T01:55:41;16.03;;;12.73;;
17727;SDS011;8984;49.268;12.302;2022-07-22T01:58:09;13.63;;;12.27;;
17727;SDS011;8984;49.268;12.302;2022-07-22T02:00:36;13.70;;;12.27;;
17727;SDS011;8984;49.268;12.302;2022-07-22T02:03:03;13.63;;;12.30;;
17727;SDS011;8984;49.268;12.302;2022-07-22T02:05:31;14.87;;;12.70;;
17727;SDS011;8984;49.268;12.302;2022-07-22T02:07:59;13.93;;;12.07;;
17727;SDS011;8984;49.268;12.302;2022-07-22T02:10:27;14.23;;;12.53;;
17727;SDS011;8984;49.268;12.302;2022-07-22T02:12:55;13.80;;;11.27;;
17727;SDS011;8984;49.268;12.302;2022-07-22T02:15:23;13.43;;;12.03;;
17727;SDS011;8984;49.268;12.302;2022-07-22T02:17:50;12.20;;;11.00;;
17727;SDS011;8984;49.268;12.302;2022-07-22T02:20:17;11.93;;;10.83;;
17727;SDS011;8984;49.268;12.302;2022-07-22T02:22:44;12.60;;;11.37;;
17727;SDS011;8984;49.268;12.302;2022-07-22T02:25:11;12.83;;;11.63;;
17727;SDS011;8984;49.268;12.302;2022-07-22T02:27:39;14.43;;;12.13;;
17727;SDS011;8984;49.268;12.302;2022-07-22T02:30:09;14.40;;;12.30;;
17727;SDS011;8984;49.268;12.302;2022-07-22T02:32:37;13.33;;;11.87;;
17727;SDS011;8984;49.268;12.302;2022-07-22T02:35:04;12.50;;;11.30;;
17727;SDS011;8984;49.268;12.302;2022-07-22T02:37:32;13.83;;;12.00;;
17727;SDS011;8984;49.268;12.302;2022-07-22T02:39:59;14.17;;;11.77;;
17727;SDS011;8984;49.268;12.302;2022-07-22T02:42:26;12.80;;;11.27;;
17727;SDS011;8984;49.268;12.302;2022-07-22T02:44:53;19.23;;;11.93;;
17727;SDS011;8984;49.268;12.302;2022-07-22T02:47:21;14.03;;;12.37;;
17727;SDS011;8984;49.268;12.302;2022-07-22T02:49:48;13.00;;;11.70;;
17727;SDS011;8984;49.268;12.302;2022-07-22T02:52:15;13.13;;;11.40;;
17727;SDS011;8984;49.268;12.302;2022-07-22T02:54:42;12.87;;;11.10;;
17727;SDS011;8984;49.268;12.302;2022-07-22T02:57:08;13.43;;;12.03;;
17727;SDS011;8984;49.268;12.302;2022-07-22T02:59:35;12.67;;;11.37;;
17727;SDS011;8984;49.268;12.302;2022-07-22T03:02:02;13.87;;;12.07;;
17727;SDS011;8984;49.268;12.302;2022-07-22T03:04:31;15.60;;;12.13;;
17727;SDS011;8984;49.268;12.302;2022-07-22T03:06:58;12.70;;;11.50;;
17727;SDS011;8984;49.268;12.302;2022-07-22T03:09:25;14.70;;;12.63;;
17727;SDS011;8984;49.268;12.302;2022-07-22T03:11:52;14.80;;;13.10;;
17727;SDS011;8984;49.268;12.302;2022-07-22T03:14:19;14.33;;;12.93;;
17727;SDS011;8984;49.268;12.302;2022-07-22T03:16:47;13.07;;;11.77;;
17727;SDS011;8984;49.268;12.302;2022-07-22T03:19:14;13.73;;;12.20;;
17727;SDS011;8984;49.268;12.302;2022-07-22T03:21:42;14.77;;;12.60;;
17727;SDS011;8984;49.268;12.302;2022-07-22T03:24:09;14.67;;;12.03;;
17727;SDS011;8984;49.268;12.302;2022-07-22T03:26:36;13.50;;;12.20;;
17727;SDS011;8984;49.268;12.302;2022-07-22T03:29:03;12.60;;;11.30;;
17727;SDS011;8984;49.268;12.302;2022-07-22T03:31:31;12.97;;;11.67;;
17727;SDS011;8984;49.268;12.302;2022-07-22T03:33:57;15.60;;;11.67;;
17727;SDS011;8984;49.268;12.302;2022-07-22T03:36:25;16.63;;;11.90;;
17727;SDS011;8984;49.268;12.302;2022-07-22T03:38:54;19.17;;;12.50;;
17727;SDS011;8984;49.268;12.302;2022-07-22T03:41:21;13.47;;;12.17;;
17727;SDS011;8984;49.268;12.302;2022-07-22T03:43:48;13.97;;;11.73;;
17727;SDS011;8984;49.268;12.302;2022-07-22T03:46:15;15.83;;;11.73;;
17727;SDS011;8984;49.268;12.302;2022-07-22T03:48:42;13.80;;;11.23;;
17727;SDS011;8984;49.268;12.302;2022-07-22T03:51:09;13.50;;;12.10;;
17727;SDS011;8984;49.268;12.302;2022-07-22T03:53:36;14.47;;;12.73;;
17727;SDS011;8984;49.268;12.302;2022-07-22T03:56:05;14.77;;;12.50;;
17727;SDS011;8984;49.268;12.302;2022-07-22T03:58:32;14.53;;;12.90;;
17727;SDS011;8984;49.268;12.302;2022-07-22T04:00:59;14.63;;;13.10;;
17727;SDS011;8984;49.268;12.302;2022-07-22T04:03:26;15.10;;;12.50;;
17727;SDS011;8984;49.268;12.302;2022-07-22T04:05:53;13.73;;;12.33;;
17727;SDS011;8984;49.268;12.302;2022-07-22T04:08:20;13.80;;;12.47;;
17727;SDS011;8984;49.268;12.302;2022-07-22T04:10:47;13.00;;;11.60;;
17727;SDS011;8984;49.268;12.302;2022-07-22T04:13:15;12.33;;;11.03;;
17727;SDS011;8984;49.268;12.302;2022-07-22T04:15:42;11.97;;;10.70;;
17727;SDS011;8984;49.268;12.302;2022-07-22T04:18:09;13.07;;;11.17;;
17727;SDS011;8984;49.268;12.302;2022-07-22T04:20:36;11.97;;;10.77;;
17727;SDS011;8984;49.268;12.302;2022-07-22T04:23:03;12.17;;;10.87;;
17727;SDS011;8984;49.268;12.302;2022-07-22T04:25:29;12.60;;;11.38;;
17727;SDS011;8984;49.268;12.302;2022-07-22T04:27:56;16.05;;;11.15;;
17727;SDS011;8984;49.268;12.302;2022-07-22T04:30:24;13.93;;;11.20;;
17727;SDS011;8984;49.268;12.302;2022-07-22T04:32:52;12.32;;;10.48;;
17727;SDS011;8984;49.268;12.302;2022-07-22T04:35:18;12.65;;;10.68;;
17727;SDS011;8984;49.268;12.302;2022-07-22T04:37:45;11.70;;;10.50;;
17727;SDS011;8984;49.268;12.302;2022-07-22T04:40:12;11.75;;;10.65;;
17727;SDS011;8984;49.268;12.302;2022-07-22T04:42:39;12.23;;;9.70;;
17727;SDS011;8984;49.268;12.302;2022-07-22T04:45:06;12.60;;;10.27;;
17727;SDS011;8984;49.268;12.302;2022-07-22T04:47:36;11.93;;;10.38;;
17727;SDS011;8984;49.268;12.302;2022-07-22T04:50:04;11.15;;;10.02;;
17727;SDS011;8984;49.268;12.302;2022-07-22T04:52:31;10.98;;;9.77;;
17727;SDS011;8984;49.268;12.302;2022-07-22T04:54:58;10.88;;;9.50;;
17727;SDS011;8984;49.268;12.302;2022-07-22T04:57:24;11.55;;;9.85;;
17727;SDS011;8984;49.268;12.302;2022-07-22T04:59:52;11.07;;;9.77;;
17727;SDS011;8984;49.268;12.302;2022-07-22T05:02:18;10.95;;;9.38;;
17727;SDS011;8984;49.268;12.302;2022-07-22T05:04:47;12.07;;;10.38;;
17727;SDS011;8984;49.268;12.302;2022-07-22T05:07:14;11.90;;;10.68;;
17727;SDS011;8984;49.268;12.302;2022-07-22T05:09:41;11.43;;;9.55;;
17727;SDS011;8984;49.268;12.302;2022-07-22T05:12:08;13.02;;;9.40;;
17727;SDS011;8984;49.268;12.302;2022-07-22T05:14:35;11.32;;;9.68;;
17727;SDS011;8984;49.268;12.302;2022-07-22T05:17:03;11.63;;;9.48;;
17727;SDS011;8984;49.268;12.302;2022-07-22T05:19:36;9.98;;;8.98;;
17727;SDS011;8984;49.268;12.302;2022-07-22T05:22:05;11.73;;;9.65;;
17727;SDS011;8984;49.268;12.302;2022-07-22T05:24:32;13.93;;;9.65;;
17727;SDS011;8984;49.268;12.302;2022-07-22T05:26:59;10.05;;;9.05;;
17727;SDS011;8984;49.268;12.302;2022-07-22T05:29:26;10.98;;;9.60;;
17727;SDS011;8984;49.268;12.302;2022-07-22T05:31:53;9.75;;;8.45;;
17727;SDS011;8984;49.268;12.302;2022-07-22T05:34:19;9.88;;;8.93;;
17727;SDS011;8984;49.268;12.302;2022-07-22T05:36:46;11.05;;;9.65;;
17727;SDS011;8984;49.268;12.302;2022-07-22T05:39:14;10.40;;;9.30;;
17727;SDS011;8984;49.268;12.302;2022-07-22T05:41:41;11.18;;;9.98;;
17727;SDS011;8984;49.268;12.302;2022-07-22T05:44:08;17.30;;;9.85;;
17727;SDS011;8984;49.268;12.302;2022-07-22T05:46:35;11.20;;;9.68;;
17727;SDS011;8984;49.268;12.302;2022-07-22T05:49:02;11.52;;;8.90;;
17727;SDS011;8984;49.268;12.302;2022-07-22T05:51:28;11.82;;;9.35;;
17727;SDS011;8984;49.268;12.302;2022-07-22T05:53:55;11.57;;;10.00;;
17727;SDS011;8984;49.268;12.302;2022-07-22T05:56:23;11.50;;;10.00;;
17727;SDS011;8984;49.268;12.302;2022-07-22T05:58:50;12.38;;;9.80;;
17727;SDS011;8984;49.268;12.302;2022-07-22T06:01:17;16.17;;;11.27;;
17727;SDS011;8984;49.268;12.302;2022-07-22T06:03:44;11.10;;;9.30;;
17727;SDS011;8984;49.268;12.302;2022-07-22T06:06:10;11.20;;;10.10;;
17727;SDS011;8984;49.268;12.302;2022-07-22T06:08:37;10.95;;;9.73;;
17727;SDS011;8984;49.268;12.302;2022-07-22T06:11:04;12.73;;;10.65;;
17727;SDS011;8984;49.268;12.302;2022-07-22T06:13:32;17.83;;;11.05;;
17727;SDS011;8984;49.268;12.302;2022-07-22T06:15:59;13.35;;;11.65;;
17727;SDS011;8984;49.268;12.302;2022-07-22T06:18:26;12.15;;;10.85;;
17727;SDS011;8984;49.268;12.302;2022-07-22T06:20:53;13.88;;;10.30;;
17727;SDS011;8984;49.268;12.302;2022-07-22T06:23:21;11.88;;;10.27;;
17727;SDS011;8984;49.268;12.302;2022-07-22T06:25:50;13.55;;;12.15;;
17727;SDS011;8984;49.268;12.302;2022-07-22T06:28:16;11.95;;;10.73;;
17727;SDS011;8984;49.268;12.302;2022-07-22T06:30:45;15.55;;;12.15;;
17727;SDS011;8984;49.268;12.302;2022-07-22T06:33:11;17.70;;;12.50;;
17727;SDS011;8984;49.268;12.302;2022-07-22T06:35:38;16.77;;;13.00;;
17727;SDS011;8984;49.268;12.302;2022-07-22T06:38:06;17.80;;;12.80;;
17727;SDS011;8984;49.268;12.302;2022-07-22T06:40:34;15.85;;;13.50;;
17727;SDS011;8984;49.268;12.302;2022-07-22T06:43:01;16.70;;;13.85;;
17727;SDS011;8984;49.268;12.302;2022-07-22T06:45:29;14.73;;;12.38;;
17727;SDS011;8984;49.268;12.302;2022-07-22T06:47:58;13.05;;;11.63;;
17727;SDS011;8984;49.268;12.302;2022-07-22T06:50:25;13.18;;;11.18;;
17727;SDS011;8984;49.268;12.302;2022-07-22T06:52:52;13.10;;;10.85;;
17727;SDS011;8984;49.268;12.302;2022-07-22T06:55:19;12.80;;;11.07;;
17727;SDS011;8984;49.268;12.302;2022-07-22T06:57:46;12.30;;;10.98;;
17727;SDS011;8984;49.268;12.302;2022-07-22T07:00:13;17.90;;;11.93;;
17727;SDS011;8984;49.268;12.302;2022-07-22T07:02:40;17.00;;;11.27;;
17727;SDS011;8984;49.268;12.302;2022-07-22T07:05:09;16.15;;;11.60;;
17727;SDS011;8984;49.268;12.302;2022-07-22T07:07:36;15.10;;;12.77;;
17727;SDS011;8984;49.268;12.302;2022-07-22T07:10:03;14.50;;;11.27;;
17727;SDS011;8984;49.268;12.302;2022-07-22T07:12:30;17.30;;;12.38;;
17727;SDS011;8984;49.268;12.302;2022-07-22T07:14:57;13.50;;;11.32;;
17727;SDS011;8984;49.268;12.302;2022-07-22T07:17:24;16.30;;;12.65;;
17727;SDS011;8984;49.268;12.302;2022-07-22T07:19:51;15.27;;;11.95;;
17727;SDS011;8984;49.268;12.302;2022-07-22T07:22:19;12.88;;;10.02;;
17727;SDS011;8984;49.268;12.302;2022-07-22T07:24:45;15.95;;;11.00;;
17727;SDS011;8984;49.268;12.302;2022-07-22T07:27:13;13.95;;;9.35;;
17727;SDS011;8984;49.268;12.302;2022-07-22T07:29:39;11.45;;;8.70;;
17727;SDS011;8984;49.268;12.302;2022-07-22T07:32:06;9.50;;;8.25;;
17727;SDS011;8984;49.268;12.302;2022-07-22T07:34:33;9.45;;;7.90;;
17727;SDS011;8984;49.268;12.302;2022-07-22T07:37:00;7.65;;;6.95;;
17727;SDS011;8984;49.268;12.302;2022-07-22T07:39:28;9.95;;;7.43;;
17727;SDS011;8984;49.268;12.302;2022-07-22T07:41:55;9.32;;;6.90;;
17727;SDS011;8984;49.268;12.302;2022-07-22T07:44:22;10.57;;;7.70;;
17727;SDS011;8984;49.268;12.302;2022-07-22T07:46:48;8.93;;;7.65;;
17727;SDS011;8984;49.268;12.302;2022-07-22T07:49:15;7.95;;;6.88;;
17727;SDS011;8984;49.268;12.302;2022-07-22T07:51:42;8.48;;;7.00;;
17727;SDS011;8984;49.268;12.302;2022-07-22T07:54:09;8.30;;;6.57;;
17727;SDS011;8984;49.268;12.302;2022-07-22T07:56:37;9.90;;;6.15;;
17727;SDS011;8984;49.268;12.302;2022-07-22T07:59:03;8.75;;;6.40;;
17727;SDS011;8984;49.268;12.302;2022-07-22T08:01:30;9.80;;;6.30;;
17727;SDS011;8984;49.268;12.302;2022-07-22T08:03:57;6.20;;;5.28;;
17727;SDS011;8984;49.268;12.302;2022-07-22T08:06:24;7.40;;;5.03;;
17727;SDS011;8984;49.268;12.302;2022-07-22T08:08:51;9.02;;;6.32;;
17727;SDS011;8984;49.268;12.302;2022-07-22T08:11:18;7.05;;;4.93;;
17727;SDS011;8984;49.268;12.302;2022-07-22T08:13:46;7.53;;;4.38;;
17727;SDS011;8984;49.268;12.302;2022-07-22T08:16:13;6.32;;;4.93;;
17727;SDS011;8984;49.268;12.302;2022-07-22T08:18:40;6.13;;;5.32;;
17727;SDS011;8984;49.268;12.302;2022-07-22T08:21:07;8.20;;;5.65;;
17727;SDS011;8984;49.268;12.302;2022-07-22T08:23:34;6.45;;;5.50;;
17727;SDS011;8984;49.268;12.302;2022-07-22T08:26:01;6.53;;;5.32;;
17727;SDS011;8984;49.268;12.302;2022-07-22T08:28:28;7.65;;;6.03;;
17727;SDS011;8984;49.268;12.302;2022-07-22T08:30:56;10.48;;;5.43;;
17727;SDS011;8984;49.268;12.302;2022-07-22T08:33:23;5.72;;;4.70;;
17727;SDS011;8984;49.268;12.302;2022-07-22T08:35:49;8.52;;;5.45;;
17727;SDS011;8984;49.268;12.302;2022-07-22T08:38:16;7.80;;;5.32;;
17727;SDS011;8984;49.268;12.302;2022-07-22T08:40:43;6.55;;;5.90;;
17727;SDS011;8984;49.268;12.302;2022-07-22T08:43:10;9.73;;;5.43;;
17727;SDS011;8984;49.268;12.302;2022-07-22T08:45:36;6.28;;;5.40;;
17727;SDS011;8984;49.268;12.302;2022-07-22T08:48:07;9.05;;;6.25;;
17727;SDS011;8984;49.268;12.302;2022-07-22T08:50:34;7.47;;;5.18;;
17727;SDS011;8984;49.268;12.302;2022-07-22T08:53:01;6.88;;;5.97;;
17727;SDS011;8984;49.268;12.302;2022-07-22T08:55:28;8.27;;;5.63;;
17727;SDS011;8984;49.268;12.302;2022-07-22T08:57:55;7.07;;;5.88;;
17727;SDS011;8984;49.268;12.302;2022-07-22T09:00:22;7.82;;;5.75;;
17727;SDS011;8984;49.268;12.302;2022-07-22T09:02:49;8.32;;;5.95;;
17727;SDS011;8984;49.268;12.302;2022-07-22T09:05:17;7.05;;;5.50;;
17727;SDS011;8984;49.268;12.302;2022-07-22T09:07:45;7.25;;;6.38;;
17727;SDS011;8984;49.268;12.302;2022-07-22T09:10:14;6.90;;;6.20;;
17727;SDS011;8984;49.268;12.302;2022-07-22T09:12:50;9.15;;;6.18;;
17727;SDS011;8984;49.268;12.302;2022-07-22T09:15:26;7.65;;;6.88;;
17727;SDS011;8984;49.268;12.302;2022-07-22T09:17:54;9.70;;;6.90;;
17727;SDS011;8984;49.268;12.302;2022-07-22T09:20:23;9.05;;;6.75;;
17727;SDS011;8984;49.268;12.302;2022-07-22T09:22:50;10.32;;;6.75;;
17727;SDS011;8984;49.268;12.302;2022-07-22T09:25:18;8.75;;;6.60;;
17727;SDS011;8984;49.268;12.302;2022-07-22T09:27:51;10.48;;;6.53;;
17727;SDS011;8984;49.268;12.302;2022-07-22T09:30:19;8.27;;;6.13;;
17727;SDS011;8984;49.268;12.302;2022-07-22T09:32:47;7.72;;;6.50;;
17727;SDS011;8984;49.268;12.302;2022-07-22T09:35:16;7.40;;;6.63;;
17727;SDS011;8984;49.268;12.302;2022-07-22T09:37:48;7.55;;;6.35;;
17727;SDS011;8984;49.268;12.302;2022-07-22T09:40:17;8.50;;;6.50;;
17727;SDS011;8984;49.268;12.302;2022-07-22T09:42:46;8.52;;;6.78;;
17727;SDS011;8984;49.268;12.302;2022-07-22T09:45:15;8.40;;;6.18;;
17727;SDS011;8984;49.268;12.302;2022-07-22T09:47:42;10.32;;;6.90;;
17727;SDS011;8984;49.268;12.302;2022-07-22T09:50:17;7.20;;;5.93;;
17727;SDS011;8984;49.268;12.302;2022-07-22T09:52:46;7.07;;;6.38;;
17727;SDS011;8984;49.268;12.302;2022-07-22T09:55:15;7.68;;;6.05;;
17727;SDS011;8984;49.268;12.302;2022-07-22T09:57:44;7.40;;;6.57;;
17727;SDS011;8984;49.268;12.302;2022-07-22T10:00:12;9.68;;;7.55;;
17727;SDS011;8984;49.268;12.302;2022-07-22T10:02:43;6.57;;;5.88;;
17727;SDS011;8984;49.268;12.302;2022-07-22T10:05:13;9.02;;;6.00;;
17727;SDS011;8984;49.268;12.302;2022-07-22T10:07:41;6.88;;;6.18;;
17727;SDS011;8984;49.268;12.302;2022-07-22T10:10:14;7.03;;;5.93;;
17727;SDS011;8984;49.268;12.302;2022-07-22T10:12:42;8.02;;;6.10;;
17727;SDS011;8984;49.268;12.302;2022-07-22T10:15:10;6.72;;;6.13;;
17727;SDS011;8984;49.268;12.302;2022-07-22T10:17:38;7.22;;;6.00;;
17727;SDS011;8984;49.268;12.302;2022-07-22T10:20:07;6.32;;;5.68;;
17727;SDS011;8984;49.268;12.302;2022-07-22T10:22:52;7.18;;;6.00;;
17727;SDS011;8984;49.268;12.302;2022-07-22T10:25:22;9.98;;;6.35;;
17727;SDS011;8984;49.268;12.302;2022-07-22T10:27:51;7.20;;;5.30;;
17727;SDS011;8984;49.268;12.302;2022-07-22T10:30:20;5.68;;;4.95;;
17727;SDS011;8984;49.268;12.302;2022-07-22T10:33:01;6.30;;;5.00;;
17727;SDS011;8984;49.268;12.302;2022-07-22T10:35:34;7.15;;;5.05;;
17727;SDS011;8984;49.268;12.302;2022-07-22T10:38:06;6.95;;;5.47;;
17727;SDS011;8984;49.268;12.302;2022-07-22T10:40:48;5.88;;;5.10;;
17727;SDS011;8984;49.268;12.302;2022-07-22T10:43:17;5.30;;;4.80;;
17727;SDS011;8984;49.268;12.302;2022-07-22T10:45:46;6.10;;;4.90;;
17727;SDS011;8984;49.268;12.302;2022-07-22T10:48:15;5.78;;;5.18;;
17727;SDS011;8984;49.268;12.302;2022-07-22T10:50:48;6.93;;;5.25;;
17727;SDS011;8984;49.268;12.302;2022-07-22T10:53:41;6.30;;;5.25;;
17727;SDS011;8984;49.268;12.302;2022-07-22T10:56:15;7.45;;;4.70;;
17727;SDS011;8984;49.268;12.302;2022-07-22T10:59:07;8.35;;;5.18;;
17727;SDS011;8984;49.268;12.302;2022-07-22T11:01:36;5.63;;;5.03;;
17727;SDS011;8984;49.268;12.302;2022-07-22T11:04:08;6.55;;;4.57;;
17727;SDS011;8984;49.268;12.302;2022-07-22T11:06:37;6.88;;;5.53;;
17727;SDS011;8984;49.268;12.302;2022-07-22T11:09:05;6.07;;;4.70;;
17727;SDS011;8984;49.268;12.302;2022-07-22T11:11:37;7.47;;;5.20;;
17727;SDS011;8984;49.268;12.302;2022-07-22T11:14:15;6.22;;;5.20;;
17727;SDS011;8984;49.268;12.302;2022-07-22T11:16:45;6.32;;;4.63;;
17727;SDS011;8984;49.268;12.302;2022-07-22T11:19:18;5.18;;;4.35;;
17727;SDS011;8984;49.268;12.302;2022-07-22T11:21:48;6.07;;;4.50;;
17727;SDS011;8984;49.268;12.302;2022-07-22T11:24:17;5.53;;;4.22;;
17727;SDS011;8984;49.268;12.302;2022-07-22T11:26:47;6.55;;;4.50;;
17727;SDS011;8984;49.268;12.302;2022-07-22T11:29:16;7.10;;;4.60;;
17727;SDS011;8984;49.268;12.302;2022-07-22T11:31:44;5.13;;;4.57;;
17727;SDS011;8984;49.268;12.302;2022-07-22T11:34:11;5.80;;;4.40;;
17727;SDS011;8984;49.268;12.302;2022-07-22T11:36:42;4.28;;;3.88;;
17727;SDS011;8984;49.268;12.302;2022-07-22T11:39:11;6.43;;;4.50;;
17727;SDS011;8984;49.268;12.302;2022-07-22T11:41:40;7.15;;;4.20;;
17727;SDS011;8984;49.268;12.302;2022-07-22T11:44:08;6.45;;;4.28;;
17727;SDS011;8984;49.268;12.302;2022-07-22T11:46:36;6.20;;;4.03;;
17727;SDS011;8984;49.268;12.302;2022-07-22T11:49:04;9.35;;;4.30;;
17727;SDS011;8984;49.268;12.302;2022-07-22T11:51:33;5.45;;;4.40;;
17727;SDS011;8984;49.268;12.302;2022-07-22T11:54:02;5.65;;;4.10;;
17727;SDS011;8984;49.268;12.302;2022-07-22T11:56:29;7.97;;;4.20;;
17727;SDS011;8984;49.268;12.302;2022-07-22T11:58:56;5.00;;;4.50;;
17727;SDS011;8984;49.268;12.302;2022-07-22T12:01:25;4.85;;;4.35;;
17727;SDS011;8984;49.268;12.302;2022-07-22T12:03:53;6.20;;;4.65;;
17727;SDS011;8984;49.268;12.302;2022-07-22T12:06:23;5.88;;;4.40;;
17727;SDS011;8984;49.268;12.302;2022-07-22T12:08:52;7.68;;;4.07;;
17727;SDS011;8984;49.268;12.302;2022-07-22T12:11:20;5.60;;;4.40;;
17727;SDS011;8984;49.268;12.302;2022-07-22T12:13:49;8.70;;;4.45;;
17727;SDS011;8984;49.268;12.302;2022-07-22T12:16:22;5.63;;;4.32;;
17727;SDS011;8984;49.268;12.302;2022-07-22T12:18:53;6.18;;;4.47;;
17727;SDS011;8984;49.268;12.302;2022-07-22T12:21:22;4.85;;;4.10;;
17727;SDS011;8984;49.268;12.302;2022-07-22T12:23:53;7.57;;;4.18;;
17727;SDS011;8984;49.268;12.302;2022-07-22T12:26:36;5.43;;;4.53;;
17727;SDS011;8984;49.268;12.302;2022-07-22T12:31:56;4.95;;;4.45;;
17727;SDS011;8984;49.268;12.302;2022-07-22T12:34:28;5.03;;;4.30;;
17727;SDS011;8984;49.268;12.302;2022-07-22T12:36:57;5.28;;;4.30;;
17727;SDS011;8984;49.268;12.302;2022-07-22T12:39:24;4.45;;;4.05;;
17727;SDS011;8984;49.268;12.302;2022-07-22T12:41:51;5.65;;;4.85;;
17727;SDS011;8984;49.268;12.302;2022-07-22T12:44:19;4.95;;;4.25;;
17727;SDS011;8984;49.268;12.302;2022-07-22T12:46:48;4.82;;;4.20;;
17727;SDS011;8984;49.268;12.302;2022-07-22T12:49:18;4.43;;;4.03;;
17727;SDS011;8984;49.268;12.302;2022-07-22T12:52:06;4.82;;;4.22;;
17727;SDS011;8984;49.268;12.302;2022-07-22T12:54:35;5.43;;;4.10;;
17727;SDS011;8984;49.268;12.302;2022-07-22T12:57:03;6.30;;;4.45;;
17727;SDS011;8984;49.268;12.302;2022-07-22T12:59:30;4.75;;;4.22;;
17727;SDS011;8984;49.268;12.302;2022-07-22T13:01:57;5.55;;;4.20;;
17727;SDS011;8984;49.268;12.302;2022-07-22T13:04:25;5.70;;;4.07;;
17727;SDS011;8984;49.268;12.302;2022-07-22T13:06:52;4.93;;;3.97;;
17727;SDS011;8984;49.268;12.302;2022-07-22T13:09:19;7.78;;;4.15;;
17727;SDS011;8984;49.268;12.302;2022-07-22T13:11:46;8.07;;;4.07;;
17727;SDS011;8984;49.268;12.302;2022-07-22T13:14:14;5.80;;;4.05;;
17727;SDS011;8984;49.268;12.302;2022-07-22T13:16:41;5.00;;;4.28;;
17727;SDS011;8984;49.268;12.302;2022-07-22T13:19:08;5.20;;;3.80;;
17727;SDS011;8984;49.268;12.302;2022-07-22T13:21:36;5.00;;;4.15;;
17727;SDS011;8984;49.268;12.302;2022-07-22T13:24:03;7.60;;;4.00;;
17727;SDS011;8984;49.268;12.302;2022-07-22T13:26:30;4.78;;;3.75;;
17727;SDS011;8984;49.268;12.302;2022-07-22T13:28:57;4.82;;;4.30;;
17727;SDS011;8984;49.268;12.302;2022-07-22T13:31:24;4.53;;;3.95;;
17727;SDS011;8984;49.268;12.302;2022-07-22T13:33:51;6.75;;;4.38;;
17727;SDS011;8984;49.268;12.302;2022-07-22T13:36:18;7.13;;;4.93;;
17727;SDS011;8984;49.268;12.302;2022-07-22T13:38:46;12.30;;;5.18;;
17727;SDS011;8984;49.268;12.302;2022-07-22T13:41:14;9.45;;;5.15;;
17727;SDS011;8984;49.268;12.302;2022-07-22T13:43:44;6.15;;;4.22;;
17727;SDS011;8984;49.268;12.302;2022-07-22T13:46:14;7.32;;;4.22;;
17727;SDS011;8984;49.268;12.302;2022-07-22T13:48:41;4.90;;;4.20;;
17727;SDS011;8984;49.268;12.302;2022-07-22T13:51:08;4.43;;;3.92;;
17727;SDS011;8984;49.268;12.302;2022-07-22T13:53:35;7.32;;;4.55;;
17727;SDS011;8984;49.268;12.302;2022-07-22T13:56:03;5.47;;;4.43;;
17727;SDS011;8984;49.268;12.302;2022-07-22T13:58:30;6.50;;;4.55;;
17727;SDS011;8984;49.268;12.302;2022-07-22T14:00:58;5.93;;;4.65;;
17727;SDS011;8984;49.268;12.302;2022-07-22T14:03:25;6.07;;;4.40;;
17727;SDS011;8984;49.268;12.302;2022-07-22T14:05:52;7.25;;;4.40;;
17727;SDS011;8984;49.268;12.302;2022-07-22T14:08:19;4.55;;;3.88;;
17727;SDS011;8984;49.268;12.302;2022-07-22T14:10:46;6.60;;;4.25;;
17727;SDS011;8984;49.268;12.302;2022-07-22T14:13:14;5.00;;;4.25;;
17727;SDS011;8984;49.268;12.302;2022-07-22T14:15:41;4.20;;;3.80;;
17727;SDS011;8984;49.268;12.302;2022-07-22T14:18:07;4.72;;;4.10;;
17727;SDS011;8984;49.268;12.302;2022-07-22T14:20:34;4.43;;;4.03;;
17727;SDS011;8984;49.268;12.302;2022-07-22T14:23:01;4.40;;;3.90;;
17727;SDS011;8984;49.268;12.302;2022-07-22T14:25:30;5.30;;;4.07;;
17727;SDS011;8984;49.268;12.302;2022-07-22T14:27:57;4.47;;;3.90;;
17727;SDS011;8984;49.268;12.302;2022-07-22T14:30:25;5.45;;;4.05;;
17727;SDS011;8984;49.268;12.302;2022-07-22T14:32:52;4.55;;;4.00;;
17727;SDS011;8984;49.268;12.302;2022-07-22T14:35:19;5.30;;;4.00;;
17727;SDS011;8984;49.268;12.302;2022-07-22T14:37:46;7.35;;;4.00;;
17727;SDS011;8984;49.268;12.302;2022-07-22T14:40:13;5.15;;;3.70;;
17727;SDS011;8984;49.268;12.302;2022-07-22T14:42:40;5.90;;;4.53;;